Time;durP1;ratioP1;P1;durP2;ratioP2;P2;SDS_P1;SDS_P2;PMS_P1;PMS_P2;Temp;Humidity;BMP_temperature;BMP_pressure;BME280_temperature;BME280_humidity;BME280_pressure;Samples;Min_cycle;Max_cycle;Signal;HPM_P1;HPM_P2
2024/01/20 00:01:16;;;;;;;5.40;2.13;;;;;;;-15.06;83.98;100128.34;10316620;28;20039;-63
2024/01/20 00:06:19;;;;;;;4.07;2.25;;;;;;;-15.08;83.81;100152.19;10314578;28;20045;-64
2024/01/20 00:11:22;;;;;;;5.07;2.90;;;;;;;-15.13;83.82;100149.06;10311267;28;20042;-64
2024/01/20 00:16:25;;;;;;;3.22;2.20;;;;;;;-15.21;83.64;100155.97;10296409;28;20070;-64
2024/01/20 00:21:27;;;;;;;5.68;2.53;;;;;;;-15.22;84.05;100165.66;10292651;28;20038;-64
2024/01/20 00:26:30;;;;;;;7.22;2.50;;;;;;;-15.26;84.11;100174.78;10294212;28;20139;-65
2024/01/20 00:31:32;;;;;;;4.32;2.22;;;;;;;-15.30;84.33;100186.47;10308892;28;20041;-64
2024/01/20 00:36:34;;;;;;;6.35;2.40;;;;;;;-15.32;84.14;100194.50;10294815;28;20043;-65
2024/01/20 00:41:37;;;;;;;6.28;2.40;;;;;;;-15.31;84.45;100206.69;10300267;28;20050;-63
2024/01/20 00:46:40;;;;;;;3.63;2.00;;;;;;;-15.29;84.72;100206.56;10317271;28;20054;-64
2024/01/20 00:51:43;;;;;;;6.32;2.10;;;;;;;-15.36;84.73;100213.31;10299524;28;20046;-63
2024/01/20 00:56:46;;;;;;;5.25;2.00;;;;;;;-15.40;84.44;100214.53;10302112;28;20043;-64
2024/01/20 01:01:50;;;;;;;4.13;2.00;;;;;;;-15.40;84.87;100225.03;10324067;28;20054;-64
2024/01/20 01:06:53;;;;;;;5.95;2.10;;;;;;;-15.46;85.33;100239.50;10321014;28;20058;-64
2024/01/20 01:11:55;;;;;;;5.85;2.03;;;;;;;-15.47;85.13;100250.16;10306690;28;20042;-64
2024/01/20 01:16:57;;;;;;;5.70;2.10;;;;;;;-15.59;85.75;100267.81;10323791;28;20065;-64
2024/01/20 01:22:01;;;;;;;5.68;2.50;;;;;;;-15.63;86.32;100272.47;10309742;28;20042;-63
2024/01/20 01:27:04;;;;;;;5.70;2.20;;;;;;;-15.58;86.89;100272.91;10325992;28;20042;-64
2024/01/20 01:32:07;;;;;;;4.75;2.30;;;;;;;-15.44;87.14;100286.72;10323963;28;20058;-64
2024/01/20 01:37:09;;;;;;;4.60;2.50;;;;;;;-15.56;87.06;100293.81;10326909;28;20046;-63
2024/01/20 01:42:12;;;;;;;8.50;2.72;;;;;;;-15.61;86.90;100311.81;10288474;28;20046;-64
2024/01/20 01:47:15;;;;;;;5.38;3.15;;;;;;;-15.74;86.72;100314.56;10324250;28;20051;-64
2024/01/20 01:52:18;;;;;;;4.78;2.00;;;;;;;-15.77;87.62;100322.69;10323326;28;20042;-64
2024/01/20 01:57:22;;;;;;;4.03;2.22;;;;;;;-15.86;87.88;100328.66;10297002;28;20045;-63
2024/01/20 02:02:25;;;;;;;5.30;2.50;;;;;;;-15.91;88.00;100343.97;10317659;28;20039;-64
2024/01/20 02:07:29;;;;;;;3.97;1.75;;;;;;;-15.91;88.83;100339.53;10302731;28;20047;-64
2024/01/20 02:12:32;;;;;;;4.30;2.47;;;;;;;-15.92;88.93;100347.56;10321882;28;20042;-64
2024/01/20 02:17:35;;;;;;;7.13;2.38;;;;;;;-15.89;88.70;100345.50;10305537;28;20058;-65
2024/01/20 02:22:37;;;;;;;4.85;2.88;;;;;;;-16.00;89.57;100352.56;10322401;28;20039;-64
2024/01/20 02:27:40;;;;;;;6.88;2.83;;;;;;;-16.02;89.93;100354.47;10323048;28;20518;-63
2024/01/20 02:32:42;;;;;;;4.25;2.50;;;;;;;-16.03;89.40;100363.31;10319909;28;20038;-64
2024/01/20 02:37:45;;;;;;;6.80;2.50;;;;;;;-16.10;89.20;100375.25;10320665;28;20043;-64
2024/01/20 02:42:48;;;;;;;3.72;2.28;;;;;;;-15.94;89.65;100371.31;10304434;28;20042;-64
2024/01/20 02:47:52;;;;;;;8.10;3.03;;;;;;;-16.11;89.12;100376.22;10321069;28;20049;-63
2024/01/20 02:52:55;;;;;;;6.00;2.50;;;;;;;-16.16;89.23;100390.50;10302712;28;20127;-63
2024/01/20 02:57:57;;;;;;;5.47;2.50;;;;;;;-16.27;89.38;100398.38;10310408;28;20039;-64
2024/01/20 03:03:00;;;;;;;6.25;2.40;;;;;;;-16.34;88.76;100412.91;10320022;28;20038;-64
2024/01/20 03:08:06;;;;;;;5.28;2.88;;;;;;;-16.38;89.27;100415.88;10318114;28;20055;-64
2024/01/20 03:13:08;;;;;;;6.10;3.25;;;;;;;-16.24;88.52;100423.56;10316665;28;20038;-63
2024/01/20 03:18:11;;;;;;;5.88;2.45;;;;;;;-16.01;89.39;100427.91;10321274;28;20038;-63
2024/01/20 03:23:14;;;;;;;6.05;2.40;;;;;;;-16.05;88.36;100428.28;10319863;28;20042;-63
2024/01/20 03:28:18;;;;;;;9.10;2.80;;;;;;;-16.16;88.70;100436.97;10301093;28;20382;-63
2024/01/20 03:33:21;;;;;;;4.95;3.00;;;;;;;-16.23;88.21;100449.72;10294752;28;20039;-63
2024/01/20 03:38:24;;;;;;;6.38;2.72;;;;;;;-16.08;88.08;100447.75;10301907;28;20039;-63
2024/01/20 03:43:26;;;;;;;7.00;2.20;;;;;;;-16.05;88.22;100451.91;10314500;28;20057;-63
2024/01/20 03:48:31;;;;;;;4.63;2.70;;;;;;;-15.94;88.45;100462.47;10285322;28;20395;-64
2024/01/20 03:53:34;;;;;;;4.57;2.22;;;;;;;-15.98;88.60;100467.09;10279235;28;20055;-64
2024/01/20 03:58:37;;;;;;;6.65;2.88;;;;;;;-15.92;87.90;100474.53;10289348;28;20043;-64
2024/01/20 04:03:41;;;;;;;4.13;2.45;;;;;;;-15.85;88.55;100485.41;10300714;28;20418;-64
2024/01/20 04:08:43;;;;;;;7.68;2.72;;;;;;;-15.83;88.52;100501.91;10312379;28;20049;-63
2024/01/20 04:13:46;;;;;;;6.90;3.10;;;;;;;-15.80;88.13;100501.66;10318229;28;20042;-64
2024/01/20 04:18:49;;;;;;;4.90;2.80;;;;;;;-15.78;87.93;100512.09;10302071;28;20042;-63
2024/01/20 04:23:52;;;;;;;5.50;2.83;;;;;;;-15.83;88.20;100520.28;10317333;28;20510;-64
2024/01/20 04:28:55;;;;;;;6.32;3.53;;;;;;;-15.78;88.59;100526.06;10316659;28;20494;-63
2024/01/20 04:33:58;;;;;;;6.40;3.22;;;;;;;-15.68;88.20;100528.81;10316769;28;20050;-63
2024/01/20 04:39:02;;;;;;;6.70;3.38;;;;;;;-15.72;88.85;100536.13;10310586;28;20049;-64
2024/01/20 04:44:05;;;;;;;7.63;3.60;;;;;;;-15.75;87.97;100549.50;10326650;28;20062;-63
2024/01/20 04:49:07;;;;;;;11.60;3.35;;;;;;;-15.78;88.22;100552.34;10306166;28;20034;-64
2024/01/20 04:54:11;;;;;;;6.50;3.47;;;;;;;-15.74;88.75;100564.31;10307178;28;20035;-64
2024/01/20 04:59:14;;;;;;;7.30;3.65;;;;;;;-15.79;88.48;100561.19;10324182;28;20421;-64
2024/01/20 05:04:16;;;;;;;6.97;3.28;;;;;;;-15.78;88.93;100572.56;10327560;28;20054;-64
2024/01/20 05:09:20;;;;;;;7.95;3.70;;;;;;;-15.71;89.09;100589.53;10322012;28;20035;-64
2024/01/20 05:14:22;;;;;;;6.13;3.50;;;;;;;-15.59;88.79;100591.25;10304153;28;20049;-63
2024/01/20 05:19:26;;;;;;;5.35;3.20;;;;;;;-15.62;89.05;100605.47;10320281;28;20034;-63
2024/01/20 05:24:28;;;;;;;8.93;3.80;;;;;;;-15.65;88.44;100603.03;10312162;28;20038;-65
2024/01/20 05:29:31;;;;;;;9.73;4.13;;;;;;;-15.74;88.04;100614.25;10295916;28;20525;-64
2024/01/20 05:34:33;;;;;;;6.00;4.03;;;;;;;-15.82;88.83;100636.78;10311465;28;20123;-63
2024/01/20 05:39:37;;;;;;;15.27;7.80;;;;;;;-15.85;88.18;100636.06;10294732;28;20045;-64
2024/01/20 05:44:40;;;;;;;10.10;5.38;;;;;;;-15.93;87.93;100654.22;10320004;28;20042;-64
2024/01/20 05:49:43;;;;;;;7.70;4.40;;;;;;;-16.01;88.35;100645.19;10303984;28;20039;-64
2024/01/20 05:54:46;;;;;;;8.98;3.92;;;;;;;-16.15;88.41;100665.41;10320611;28;20399;-65
2024/01/20 05:59:48;;;;;;;7.05;3.85;;;;;;;-16.10;87.86;100675.59;10319535;28;20042;-64
2024/01/20 06:04:52;;;;;;;6.03;3.80;;;;;;;-16.26;88.66;100682.91;10314893;28;20062;-65
2024/01/20 06:09:56;;;;;;;5.78;3.67;;;;;;;-16.31;87.96;100678.00;10314278;28;20042;-64
2024/01/20 06:14:59;;;;;;;8.65;5.10;;;;;;;-16.24;88.58;100697.59;10320320;28;20035;-64
2024/01/20 06:20:03;;;;;;;12.65;5.50;;;;;;;-16.20;89.08;100699.06;10302882;28;20046;-64
2024/01/20 06:25:07;;;;;;;20.60;10.77;;;;;;;-16.23;88.64;100704.53;10319869;28;20043;-65
2024/01/20 06:30:10;;;;;;;14.55;7.95;;;;;;;-16.02;89.05;100709.22;10301582;28;20037;-65
2024/01/20 06:35:12;;;;;;;14.05;7.30;;;;;;;-15.97;88.95;100714.97;10302674;28;20043;-65
2024/01/20 06:40:16;;;;;;;11.85;6.05;;;;;;;-15.95;88.77;100728.88;10318006;28;20038;-65
2024/01/20 06:45:19;;;;;;;13.15;6.85;;;;;;;-15.88;89.58;100737.97;10316552;28;20820;-65
2024/01/20 06:50:21;;;;;;;9.98;5.40;;;;;;;-15.84;89.60;100742.06;10303138;28;20031;-65
2024/01/20 06:55:24;;;;;;;14.23;6.60;;;;;;;-15.77;88.95;100751.19;10309703;28;20042;-66
2024/01/20 07:00:26;;;;;;;13.55;6.60;;;;;;;-15.63;89.20;100756.28;10307609;28;20426;-65
2024/01/20 07:05:29;;;;;;;15.45;8.43;;;;;;;-15.46;88.98;100764.72;10318280;28;20053;-66
2024/01/20 07:10:31;;;;;;;16.27;8.10;;;;;;;-15.34;89.38;100772.56;10315282;28;20035;-63
2024/01/20 07:15:34;;;;;;;12.30;7.10;;;;;;;-15.16;89.87;100773.00;10323911;28;20034;-65
2024/01/20 07:20:36;;;;;;;13.13;6.68;;;;;;;-15.09;89.52;100781.28;10317905;28;20066;-65
2024/01/20 07:25:39;;;;;;;14.40;7.38;;;;;;;-14.99;89.51;100784.91;10318315;28;20046;-64
2024/01/20 07:30:41;;;;;;;14.60;7.28;;;;;;;-13.21;88.59;100792.00;10281776;28;20042;-65
2024/01/20 07:35:44;;;;;;;13.10;7.17;;;;;;;-11.58;84.11;100790.44;10319252;28;20510;-65
2024/01/20 07:40:46;;;;;;;16.50;7.93;;;;;;;-10.54;77.27;100797.78;10303047;28;20058;-64
2024/01/20 07:45:48;;;;;;;45.65;18.17;;;;;;;-10.34;73.45;100803.88;10319012;28;20066;-66
2024/01/20 07:50:51;;;;;;;31.08;14.73;;;;;;;-9.34;69.82;100813.84;10281366;28;20039;-65
2024/01/20 07:55:53;;;;;;;20.05;10.02;;;;;;;-9.81;68.01;100816.56;10311120;28;20034;-65
2024/01/20 08:00:56;;;;;;;17.13;8.77;;;;;;;-8.97;67.08;100811.91;10316600;28;20057;-66
2024/01/20 08:06:00;;;;;;;11.07;6.15;;;;;;;-8.71;64.70;100813.81;10315727;28;20042;-65
2024/01/20 08:11:03;;;;;;;12.25;6.82;;;;;;;-8.09;63.85;100833.25;10316748;28;20042;-63
2024/01/20 08:16:06;;;;;;;7.10;5.53;;;;;;;-7.77;61.51;100835.31;10316851;28;20054;-64
2024/01/20 08:21:09;;;;;;;10.40;5.70;;;;;;;-7.01;59.55;100836.13;10299821;28;20523;-64
2024/01/20 08:26:11;;;;;;;12.23;6.72;;;;;;;-7.07;58.14;100842.13;10317805;28;20426;-64
2024/01/20 08:31:14;;;;;;;11.23;6.55;;;;;;;-6.33;56.83;100836.91;10316743;28;20042;-64
2024/01/20 08:36:16;;;;;;;11.70;6.50;;;;;;;-7.15;56.97;100835.91;10305017;28;20035;-64
2024/01/20 08:41:18;;;;;;;12.02;6.40;;;;;;;-7.95;59.12;100848.69;10312669;28;20039;-65
2024/01/20 08:46:21;;;;;;;13.45;6.85;;;;;;;-9.64;62.55;100865.41;10267106;28;20410;-66
2024/01/20 08:51:24;;;;;;;12.38;6.53;;;;;;;-12.02;68.47;100869.22;10308710;28;20046;-64
2024/01/20 08:56:26;;;;;;;12.27;7.85;;;;;;;-12.62;72.71;100883.13;10312117;28;20039;-65
2024/01/20 09:01:29;;;;;;;15.98;8.73;;;;;;;-12.83;74.99;100898.94;10306673;28;20043;-64
2024/01/20 09:06:31;;;;;;;13.73;8.57;;;;;;;-13.01;76.55;100893.34;10303063;28;20042;-66
2024/01/20 09:11:35;;;;;;;16.70;9.15;;;;;;;-12.94;78.83;100893.69;10322579;28;20076;-67
2024/01/20 09:16:37;;;;;;;15.13;8.18;;;;;;;-13.09;79.42;100901.88;10314020;28;20043;-64
2024/01/20 09:27:41;;;;;;;12.18;6.75;;;;;;;-13.20;80.67;100919.56;10307690;28;20054;-65
2024/01/20 09:32:44;;;;;;;11.93;7.00;;;;;;;-13.23;81.52;100919.81;10308451;28;20047;-64
2024/01/20 09:37:46;;;;;;;13.63;7.20;;;;;;;-13.06;82.71;100926.34;10325642;28;20046;-64
2024/01/20 09:42:50;;;;;;;12.35;6.13;;;;;;;-12.96;82.65;100927.31;10322117;28;20054;-64
2024/01/20 09:47:54;;;;;;;11.10;6.80;;;;;;;-13.04;83.15;100934.97;10305687;28;20049;-63
2024/01/20 09:52:58;;;;;;;11.73;6.82;;;;;;;-12.85;83.52;100940.47;10304963;28;20030;-65
2024/01/20 09:58:01;;;;;;;9.85;5.18;;;;;;;-12.83;84.08;100939.41;10303360;28;20520;-65
2024/01/20 10:03:07;;;;;;;12.00;6.07;;;;;;;-12.74;83.91;100939.63;10306354;28;20041;-63
2024/01/20 10:08:12;;;;;;;10.32;5.20;;;;;;;-12.74;84.16;100948.38;10321219;28;20045;-65
2024/01/20 10:13:14;;;;;;;8.40;4.72;;;;;;;-12.67;84.90;100948.72;10316658;28;20043;-64
2024/01/20 10:18:17;;;;;;;10.48;5.00;;;;;;;-12.63;84.87;100964.22;10345170;28;20045;-64
2024/01/20 10:23:22;;;;;;;11.48;4.93;;;;;;;-12.70;84.93;100960.38;10316067;28;20039;-67
2024/01/20 10:28:24;;;;;;;13.57;6.05;;;;;;;-12.73;84.82;100965.91;10320617;28;20134;-64
2024/01/20 10:33:27;;;;;;;10.73;5.93;;;;;;;-12.73;85.03;100970.34;10325853;28;20042;-66
2024/01/20 10:38:30;;;;;;;12.52;5.95;;;;;;;-12.66;85.77;100977.69;10322861;28;20030;-66
2024/01/20 10:43:39;;;;;;;8.55;5.07;;;;;;;-12.61;86.03;100979.94;10289467;28;20141;-66
2024/01/20 10:48:42;;;;;;;;;;;;;;;-12.48;85.92;100983.28;10321959;28;20054;-65
2024/01/20 10:53:46;;;;;;;15.85;7.18;;;;;;;-12.52;85.11;100973.91;10303896;28;19925;-66
2024/01/20 10:58:58;;;;;;;10.98;6.00;;;;;;;-12.64;85.15;100975.75;10318164;28;20537;-61
2024/01/20 11:04:02;;;;;;;12.43;7.13;;;;;;;-12.57;84.96;100984.84;10320882;28;20537;-64
2024/01/20 11:09:05;;;;;;;14.30;8.10;;;;;;;-12.46;84.93;100980.53;10314203;28;20430;-63
2024/01/20 11:14:12;;;;;;;13.90;7.78;;;;;;;-12.49;85.50;100990.38;10316427;28;20081;-64
2024/01/20 11:19:14;;;;;;;13.93;6.97;;;;;;;-12.46;84.43;100985.81;10301841;28;20047;-64
2024/01/20 11:24:18;;;;;;;15.15;7.30;;;;;;;-12.60;85.08;100995.69;10299906;28;20035;-66
2024/01/20 11:29:25;;;;;;;15.63;7.25;;;;;;;-12.56;84.76;101010.31;10296428;28;20042;-65
2024/01/20 11:34:28;;;;;;;15.90;9.23;;;;;;;-12.56;84.54;101014.78;10307701;28;20034;-65
2024/01/20 11:39:31;;;;;;;16.65;7.28;;;;;;;-12.61;84.73;101023.06;10317723;28;20042;-62
2024/01/20 11:44:33;;;;;;;18.00;8.88;;;;;;;-12.69;84.52;101035.22;10294880;28;20042;-62
2024/01/20 11:49:36;;;;;;;14.48;8.32;;;;;;;-12.79;85.00;101037.75;10316385;28;20043;-64
2024/01/20 11:54:38;;;;;;;21.92;12.85;;;;;;;-12.85;84.97;101032.94;10312283;28;20065;-63
2024/01/20 11:59:41;;;;;;;23.30;13.77;;;;;;;-12.90;85.39;101038.59;10315293;28;20070;-63
2024/01/20 12:04:43;;;;;;;13.88;6.78;;;;;;;-12.99;85.74;101041.13;10311510;28;20541;-64
2024/01/20 12:09:48;;;;;;;12.63;6.13;;;;;;;-13.01;86.51;101043.91;10297356;28;20046;-63
2024/01/20 12:14:51;;;;;;;10.13;4.30;;;;;;;-12.97;86.42;101049.75;10315633;28;20035;-63
2024/01/20 12:19:54;;;;;;;8.70;4.53;;;;;;;-13.10;86.37;101049.88;10314457;28;20518;-64
2024/01/20 12:24:58;;;;;;;7.93;4.03;;;;;;;-13.25;86.39;101072.22;10316961;28;20037;-64
2024/01/20 12:30:03;;;;;;;16.80;7.93;;;;;;;-13.20;87.08;101077.97;10298439;28;20038;-64
2024/01/20 12:35:06;;;;;;;17.65;7.80;;;;;;;-13.13;87.73;101081.81;10307577;28;20038;-64
2024/01/20 12:40:09;;;;;;;14.68;6.88;;;;;;;-13.25;87.62;101086.25;10297858;28;20507;-64
2024/01/20 12:45:12;;;;;;;8.57;4.82;;;;;;;-13.32;87.45;101097.41;10316278;28;20038;-64
2024/01/20 12:50:15;;;;;;;8.73;5.60;;;;;;;-13.39;87.51;101097.00;10314577;28;20051;-64
2024/01/20 12:55:18;;;;;;;10.52;5.72;;;;;;;-13.57;87.71;101101.03;10306474;28;20126;-64
2024/01/20 13:00:21;;;;;;;10.77;6.03;;;;;;;-13.55;87.74;101112.31;10308344;28;20049;-63
2024/01/20 13:05:24;;;;;;;19.48;8.07;;;;;;;-13.56;87.35;101127.31;10314781;28;20051;-63
2024/01/20 13:10:26;;;;;;;14.98;6.35;;;;;;;-13.51;87.71;101134.91;10325055;28;20039;-64
2024/01/20 13:15:29;;;;;;;20.40;8.13;;;;;;;-13.66;88.13;101143.97;10324951;28;20045;-64
2024/01/20 13:20:32;;;;;;;15.82;7.15;;;;;;;-13.73;87.70;101154.94;10326242;28;20850;-65
2024/01/20 13:25:35;;;;;;;15.82;6.70;;;;;;;-13.79;87.64;101160.69;10320236;28;20042;-65
2024/01/20 13:30:38;;;;;;;13.00;6.28;;;;;;;-13.73;87.78;101156.72;10323040;28;20502;-64
2024/01/20 13:35:41;;;;;;;14.40;6.03;;;;;;;-13.87;88.12;101159.56;10305747;28;20045;-65
2024/01/20 13:40:44;;;;;;;12.07;5.20;;;;;;;-13.75;88.47;101169.19;10322658;28;20572;-64
2024/01/20 13:45:47;;;;;;;12.15;7.00;;;;;;;-13.80;88.38;101179.25;10322276;28;20047;-65
2024/01/20 13:50:49;;;;;;;14.63;7.28;;;;;;;-13.94;87.85;101197.88;10316322;28;20051;-65
2024/01/20 13:55:52;;;;;;;15.23;7.90;;;;;;;-14.11;87.42;101206.97;10320780;28;20043;-65
2024/01/20 14:00:55;;;;;;;13.07;6.35;;;;;;;-14.13;88.40;101222.06;10307394;28;20525;-64
2024/01/20 14:05:58;;;;;;;13.07;6.03;;;;;;;-14.32;88.64;101220.72;10306382;28;20537;-64
2024/01/20 14:11:00;;;;;;;13.23;6.45;;;;;;;-14.46;88.11;101225.28;10292267;28;20513;-63
2024/01/20 14:16:03;;;;;;;15.30;5.80;;;;;;;-14.51;88.76;101230.91;10284920;28;20038;-64
2024/01/20 14:21:06;;;;;;;10.95;4.82;;;;;;;-14.58;89.03;101240.16;10292096;28;20538;-62
2024/01/20 14:26:09;;;;;;;15.10;6.97;;;;;;;-14.64;89.12;101243.22;10320318;28;20054;-63
2024/01/20 14:31:11;;;;;;;11.85;5.90;;;;;;;-14.68;89.50;101250.50;10304040;28;20046;-63
2024/01/20 14:36:14;;;;;;;11.00;5.75;;;;;;;-14.50;89.44;101248.38;10323299;28;20043;-63
2024/01/20 14:41:16;;;;;;;8.07;4.45;;;;;;;-14.38;89.47;101258.06;10280225;28;20054;-63
2024/01/20 14:46:19;;;;;;;6.15;3.75;;;;;;;-14.20;89.78;101271.75;10278714;28;20039;-64
2024/01/20 14:51:22;;;;;;;6.72;4.00;;;;;;;-14.23;89.34;101277.22;10285697;28;20042;-63
2024/01/20 14:56:29;;;;;;;7.53;3.85;;;;;;;-14.37;89.66;101290.53;10323936;28;20034;-65
2024/01/20 15:01:33;;;;;;;13.32;5.43;;;;;;;-14.47;88.83;101297.38;10304102;28;20042;-65
2024/01/20 15:06:35;;;;;;;18.60;8.43;;;;;;;-14.38;88.89;101299.38;10317452;28;20046;-65
2024/01/20 15:11:38;;;;;;;10.07;5.57;;;;;;;-14.38;89.11;101316.03;10305143;28;20041;-63
2024/01/20 15:16:41;;;;;;;10.80;4.55;;;;;;;-14.43;89.21;101312.84;10321451;28;20066;-64
2024/01/20 15:21:45;;;;;;;10.00;5.18;;;;;;;-14.49;88.49;101308.03;10321941;28;20225;-63
2024/01/20 15:26:47;;;;;;;10.63;4.85;;;;;;;-14.44;89.34;101305.94;10321138;28;20044;-65
2024/01/20 15:31:50;;;;;;;9.73;4.97;;;;;;;-14.47;89.18;101305.28;10321391;28;20046;-64
2024/01/20 15:36:52;;;;;;;9.00;4.95;;;;;;;-14.46;88.70;101328.06;10320703;28;20039;-64
2024/01/20 15:41:56;;;;;;;11.57;5.72;;;;;;;-14.47;88.64;101343.03;10320994;28;20506;-64
2024/01/20 15:46:58;;;;;;;12.82;6.15;;;;;;;-14.65;88.90;101339.84;10320547;28;20039;-62
2024/01/20 15:52:01;;;;;;;11.80;6.70;;;;;;;-14.81;88.13;101341.78;10315477;28;20498;-64
2024/01/20 15:57:03;;;;;;;12.90;6.10;;;;;;;-14.88;88.04;101351.06;10300728;28;20042;-66
2024/01/20 16:02:06;;;;;;;12.98;5.95;;;;;;;-14.86;88.40;101356.22;10330788;28;20049;-65
2024/01/20 16:07:09;;;;;;;13.00;6.90;;;;;;;-14.93;87.82;101376.81;10316020;28;20049;-65
2024/01/20 16:12:12;;;;;;;11.57;6.35;;;;;;;-15.00;88.06;101373.75;10336516;28;20523;-64
2024/01/20 16:17:15;;;;;;;17.25;8.70;;;;;;;-15.03;87.87;101379.22;10329038;28;20044;-65
2024/01/20 16:22:18;;;;;;;12.30;7.05;;;;;;;-15.13;87.76;101382.53;10336838;28;20035;-63
2024/01/20 16:27:21;;;;;;;15.95;7.10;;;;;;;-15.25;88.10;101386.81;10322321;28;20039;-64
2024/01/20 16:32:23;;;;;;;10.57;5.45;;;;;;;-15.02;88.14;101387.97;10289867;28;20042;-64
2024/01/20 16:37:26;;;;;;;16.08;6.93;;;;;;;-14.88;88.36;101390.56;10312552;28;20167;-65
2024/01/20 16:42:28;;;;;;;16.40;6.65;;;;;;;-14.87;88.25;101379.06;10317567;28;20054;-64
2024/01/20 16:47:31;;;;;;;14.32;6.20;;;;;;;-15.02;88.35;101391.44;10318946;28;20039;-63
2024/01/20 16:52:33;;;;;;;15.23;7.00;;;;;;;-15.02;87.96;101403.75;10317530;28;20046;-64
2024/01/20 16:57:36;;;;;;;14.02;6.65;;;;;;;-15.08;88.63;101405.00;10321791;28;20050;-65
2024/01/20 17:02:39;;;;;;;12.18;6.75;;;;;;;-15.11;87.93;101420.13;10331889;28;20046;-65
2024/01/20 17:07:41;;;;;;;17.98;7.43;;;;;;;-15.30;88.26;101428.34;10326319;28;20066;-65
2024/01/20 17:12:44;;;;;;;16.85;8.52;;;;;;;-15.38;87.91;101443.78;10317122;28;20054;-64
2024/01/20 17:17:48;;;;;;;19.02;8.43;;;;;;;-15.45;88.09;101443.28;10331529;28;20042;-65
2024/01/20 17:22:52;;;;;;;20.27;8.02;;;;;;;-15.34;88.31;101447.91;10319526;28;20134;-65
2024/01/20 17:27:55;;;;;;;18.73;7.38;;;;;;;-15.39;88.99;101450.81;10317413;28;20506;-64
2024/01/20 17:32:57;;;;;;;13.27;7.53;;;;;;;-15.37;88.90;101459.47;10324496;28;20042;-64
2024/01/20 17:37:59;;;;;;;14.70;6.85;;;;;;;-15.16;89.45;101464.31;10315647;28;20034;-65
2024/01/20 17:43:02;;;;;;;14.38;7.32;;;;;;;-15.16;89.17;101491.50;10301043;28;20047;-64
2024/01/20 17:48:05;;;;;;;18.60;7.72;;;;;;;-15.35;88.70;101490.94;10321426;28;20039;-63
2024/01/20 17:53:08;;;;;;;15.25;7.28;;;;;;;-15.34;88.69;101505.78;10332838;28;20049;-64
2024/01/20 17:58:12;;;;;;;11.70;6.50;;;;;;;-15.46;88.39;101511.78;10305673;28;20038;-65
2024/01/20 18:03:16;;;;;;;9.82;6.40;;;;;;;-15.58;89.09;101508.13;10323928;28;20061;-64
2024/01/20 18:08:19;;;;;;;12.32;6.22;;;;;;;-15.54;88.25;101497.31;10308094;28;20046;-64
2024/01/20 18:13:22;;;;;;;12.48;6.07;;;;;;;-15.41;88.44;101507.13;10322924;28;20422;-63
2024/01/20 18:18:25;;;;;;;12.77;6.18;;;;;;;-15.38;89.09;101514.81;10309191;28;20034;-64
2024/01/20 18:23:28;;;;;;;11.43;5.95;;;;;;;-15.32;89.03;101524.97;10338782;28;20038;-66
2024/01/20 18:28:30;;;;;;;9.30;5.45;;;;;;;-15.18;89.23;101521.50;10351937;28;20037;-64
2024/01/20 18:33:34;;;;;;;11.73;6.00;;;;;;;-15.10;88.89;101527.09;10345338;28;20407;-65
2024/01/20 18:38:37;;;;;;;14.77;7.60;;;;;;;-15.06;89.52;101529.47;10348233;28;20075;-67
2024/01/20 18:43:39;;;;;;;20.13;8.80;;;;;;;-15.30;88.76;101537.06;10345071;28;20117;-66
2024/01/20 18:48:43;;;;;;;16.33;9.30;;;;;;;-15.35;88.93;101519.88;10349362;28;20043;-66
2024/01/20 18:53:45;;;;;;;17.83;8.73;;;;;;;-15.39;89.09;101536.81;10314588;28;20050;-68
2024/01/20 18:58:47;;;;;;;17.63;9.70;;;;;;;-15.47;88.28;101537.25;10339070;28;20034;-66
2024/01/20 19:03:50;;;;;;;20.08;10.00;;;;;;;-15.53;88.49;101545.53;10327497;28;20426;-67
2024/01/20 19:08:53;;;;;;;19.08;10.05;;;;;;;-15.57;88.29;101550.13;10268033;28;20039;-67
2024/01/20 19:13:56;;;;;;;22.42;11.48;;;;;;;-15.62;88.16;101546.09;10281801;28;20038;-67
2024/01/20 19:18:58;;;;;;;20.02;10.52;;;;;;;-15.63;88.00;101566.28;10265005;28;20050;-65
2024/01/20 19:24:02;;;;;;;21.65;10.13;;;;;;;-15.69;88.53;101573.69;10305151;28;20047;-65
2024/01/20 19:29:05;;;;;;;14.02;9.13;;;;;;;-15.81;88.18;101577.88;10326337;28;20514;-65
2024/01/20 19:34:09;;;;;;;20.58;9.63;;;;;;;-15.77;88.43;101591.72;10321627;28;20414;-65
2024/01/20 19:39:12;;;;;;;19.05;9.10;;;;;;;-15.73;88.15;101595.84;10311473;28;20061;-66
2024/01/20 19:44:15;;;;;;;16.10;9.07;;;;;;;-15.74;88.23;101600.28;10304048;28;20422;-66
2024/01/20 19:49:21;;;;;;;17.35;8.93;;;;;;;-15.80;88.09;101603.25;10328110;28;20506;-67
2024/01/20 19:54:24;;;;;;;19.90;10.07;;;;;;;-15.77;87.96;101618.88;10319396;28;20129;-67
2024/01/20 19:59:27;;;;;;;25.63;11.52;;;;;;;-15.86;88.09;101637.78;10304473;28;20046;-66
2024/01/20 20:04:31;;;;;;;22.50;11.00;;;;;;;-16.06;87.93;101640.69;10316418;28;20144;-66
2024/01/20 20:09:36;;;;;;;23.75;10.75;;;;;;;-16.25;87.16;101638.25;10318643;28;20041;-66
2024/01/20 20:14:38;;;;;;;21.25;9.18;;;;;;;-16.42;87.47;101648.84;10300441;28;20054;-66
2024/01/20 20:19:40;;;;;;;21.77;10.15;;;;;;;-16.48;87.74;101664.00;10298343;28;20498;-66
2024/01/20 20:24:43;;;;;;;21.15;8.43;;;;;;;-16.52;88.29;101661.59;10320893;28;20053;-65
2024/01/20 20:29:45;;;;;;;17.70;8.02;;;;;;;-16.55;88.15;101660.00;10304440;28;20539;-66
2024/01/20 20:34:53;;;;;;;16.80;7.35;;;;;;;-16.64;88.11;101665.75;10321095;28;20486;-65
2024/01/20 20:39:55;;;;;;;20.23;11.13;;;;;;;-16.63;88.88;101671.84;10335711;28;20442;-64
2024/01/20 20:44:59;;;;;;;20.88;10.35;;;;;;;-16.67;89.11;101684.31;10320076;28;20054;-64
2024/01/20 20:50:05;;;;;;;17.20;9.77;;;;;;;-16.74;89.32;101680.31;10328953;28;20065;-64
2024/01/20 20:55:08;;;;;;;23.02;11.10;;;;;;;-16.82;89.42;101682.50;10314828;28;20338;-62
2024/01/20 21:00:14;;;;;;;22.30;10.57;;;;;;;-16.75;89.42;101688.28;10320461;28;20042;-64
2024/01/20 21:05:17;;;;;;;20.85;10.85;;;;;;;-16.83;89.38;101676.41;10327747;28;20430;-63
2024/01/20 21:10:19;;;;;;;23.02;10.50;;;;;;;-16.89;89.15;101681.97;10315810;28;20042;-64
2024/01/20 21:15:21;;;;;;;19.48;10.82;;;;;;;-16.83;89.22;101688.66;10299842;28;20038;-65
2024/01/20 21:20:24;;;;;;;23.30;12.13;;;;;;;-16.87;89.86;101695.84;10295156;28;20034;-63
2024/01/20 21:25:29;;;;;;;23.73;10.80;;;;;;;-16.87;89.78;101706.34;10320100;28;20038;-64
2024/01/20 21:30:32;;;;;;;20.10;10.65;;;;;;;-16.94;89.89;101722.50;10317573;28;20034;-65
2024/01/20 21:35:35;;;;;;;18.10;10.73;;;;;;;-16.98;90.10;101713.09;10332680;28;20054;-64
2024/01/20 21:40:43;;;;;;;20.00;11.25;;;;;;;-16.93;89.90;101726.84;10329840;28;20047;-64
2024/01/20 21:45:45;;;;;;;22.88;11.75;;;;;;;-16.96;90.98;101717.34;10332644;28;20403;-64
2024/01/20 21:50:48;;;;;;;20.23;10.93;;;;;;;-16.87;90.80;101732.59;10328259;28;20038;-65
2024/01/20 21:55:50;;;;;;;18.35;10.25;;;;;;;-16.86;90.54;101734.28;10323639;28;20066;-64
2024/01/20 22:00:52;;;;;;;25.40;11.57;;;;;;;-16.87;90.90;101740.47;10323416;28;20046;-64
2024/01/20 22:05:55;;;;;;;17.02;10.32;;;;;;;-16.94;91.19;101748.75;10320356;28;20058;-65
2024/01/20 22:10:57;;;;;;;17.02;9.98;;;;;;;-17.00;90.48;101741.22;10312779;28;20034;-64
2024/01/20 22:16:00;;;;;;;20.02;10.40;;;;;;;-16.94;90.95;101752.22;10314038;28;20043;-63
2024/01/20 22:21:03;;;;;;;17.02;9.25;;;;;;;-16.95;90.80;101753.16;10314254;28;20035;-64
2024/01/20 22:26:09;;;;;;;17.10;9.55;;;;;;;-16.88;90.43;101765.03;10315490;28;20039;-64
2024/01/20 22:31:11;;;;;;;16.40;8.30;;;;;;;-16.90;90.74;101773.91;10316484;28;20035;-63
2024/01/20 22:36:14;;;;;;;14.48;8.00;;;;;;;-16.95;90.95;101766.28;10320537;28;20039;-63
2024/01/20 22:41:16;;;;;;;15.85;8.98;;;;;;;-16.93;89.93;101767.06;10315688;28;20038;-65
2024/01/20 22:46:19;;;;;;;15.73;9.10;;;;;;;-16.84;89.98;101768.34;10303802;28;20046;-65
2024/01/20 22:51:22;;;;;;;17.98;9.52;;;;;;;-16.91;89.92;101774.84;10317802;28;20878;-63